sensor_id;sensor_type;location;lat;lon;timestamp;P1;durP1;ratioP1;P2;durP2;ratioP2
63280;SDS011;49406;51.044;3.766;2023-01-30T00:02:08;9.10;;;3.80;;
63280;SDS011;49406;51.044;3.766;2023-01-30T00:04:42;11.90;;;6.80;;
63280;SDS011;49406;51.044;3.766;2023-01-30T00:07:17;3.80;;;3.00;;
63280;SDS011;49406;51.044;3.766;2023-01-30T00:09:52;5.90;;;1.90;;
63280;SDS011;49406;51.044;3.766;2023-01-30T00:12:26;14.90;;;7.00;;
63280;SDS011;49406;51.044;3.766;2023-01-30T00:15:01;18.60;;;5.40;;
63280;SDS011;49406;51.044;3.766;2023-01-30T00:17:36;17.10;;;7.30;;
63280;SDS011;49406;51.044;3.766;2023-01-30T00:20:12;12.70;;;5.70;;
63280;SDS011;49406;51.044;3.766;2023-01-30T00:22:46;23.40;;;8.70;;
63280;SDS011;49406;51.044;3.766;2023-01-30T00:25:21;15.90;;;8.30;;
63280;SDS011;49406;51.044;3.766;2023-01-30T00:27:57;7.20;;;5.20;;
63280;SDS011;49406;51.044;3.766;2023-01-30T00:30:33;11.60;;;5.80;;
63280;SDS011;49406;51.044;3.766;2023-01-30T00:33:07;15.50;;;6.20;;
63280;SDS011;49406;51.044;3.766;2023-01-30T00:35:43;13.80;;;6.40;;
63280;SDS011;49406;51.044;3.766;2023-01-30T00:38:19;16.20;;;6.80;;
63280;SDS011;49406;51.044;3.766;2023-01-30T00:40:54;10.40;;;4.20;;
63280;SDS011;49406;51.044;3.766;2023-01-30T00:43:29;22.40;;;9.60;;
63280;SDS011;49406;51.044;3.766;2023-01-30T00:46:23;12.80;;;3.70;;
63280;SDS011;49406;51.044;3.766;2023-01-30T00:49:21;12.40;;;6.90;;
63280;SDS011;49406;51.044;3.766;2023-01-30T00:51:56;6.10;;;4.60;;
63280;SDS011;49406;51.044;3.766;2023-01-30T00:54:31;16.60;;;6.40;;
63280;SDS011;49406;51.044;3.766;2023-01-30T00:57:06;10.10;;;6.10;;
63280;SDS011;49406;51.044;3.766;2023-01-30T00:59:41;4.00;;;2.90;;
63280;SDS011;49406;51.044;3.766;2023-01-30T01:02:15;9.30;;;4.50;;
63280;SDS011;49406;51.044;3.766;2023-01-30T01:04:50;3.80;;;2.20;;
63280;SDS011;49406;51.044;3.766;2023-01-30T01:07:25;8.50;;;3.20;;
63280;SDS011;49406;51.044;3.766;2023-01-30T01:09:59;7.60;;;5.70;;
63280;SDS011;49406;51.044;3.766;2023-01-30T01:12:34;11.50;;;4.70;;
63280;SDS011;49406;51.044;3.766;2023-01-30T01:15:09;11.90;;;5.50;;
63280;SDS011;49406;51.044;3.766;2023-01-30T01:17:44;41.30;;;1.90;;
63280;SDS011;49406;51.044;3.766;2023-01-30T01:20:20;9.50;;;6.00;;
63280;SDS011;49406;51.044;3.766;2023-01-30T01:22:55;8.20;;;3.10;;
63280;SDS011;49406;51.044;3.766;2023-01-30T01:25:30;12.30;;;5.10;;
63280;SDS011;49406;51.044;3.766;2023-01-30T01:28:04;8.50;;;3.60;;
63280;SDS011;49406;51.044;3.766;2023-01-30T01:30:39;9.90;;;5.30;;
63280;SDS011;49406;51.044;3.766;2023-01-30T01:33:14;24.70;;;1.90;;
63280;SDS011;49406;51.044;3.766;2023-01-30T01:35:48;7.00;;;3.70;;
63280;SDS011;49406;51.044;3.766;2023-01-30T01:40:59;7.80;;;4.10;;
63280;SDS011;49406;51.044;3.766;2023-01-30T01:43:37;11.80;;;7.00;;
63280;SDS011;49406;51.044;3.766;2023-01-30T01:46:26;9.30;;;4.50;;
63280;SDS011;49406;51.044;3.766;2023-01-30T01:49:06;3.40;;;2.40;;
63280;SDS011;49406;51.044;3.766;2023-01-30T01:51:48;11.80;;;4.40;;
63280;SDS011;49406;51.044;3.766;2023-01-30T01:54:28;3.00;;;1.80;;
63280;SDS011;49406;51.044;3.766;2023-01-30T01:57:09;4.30;;;2.30;;
63280;SDS011;49406;51.044;3.766;2023-01-30T01:59:48;13.20;;;4.00;;
63280;SDS011;49406;51.044;3.766;2023-01-30T02:02:29;10.40;;;4.10;;
63280;SDS011;49406;51.044;3.766;2023-01-30T02:05:05;2.70;;;1.90;;
63280;SDS011;49406;51.044;3.766;2023-01-30T02:07:44;7.90;;;4.10;;
63280;SDS011;49406;51.044;3.766;2023-01-30T02:10:25;5.60;;;3.50;;
63280;SDS011;49406;51.044;3.766;2023-01-30T02:13:06;6.40;;;3.70;;
63280;SDS011;49406;51.044;3.766;2023-01-30T02:15:41;1.70;;;0.90;;
63280;SDS011;49406;51.044;3.766;2023-01-30T02:18:15;3.30;;;1.90;;
63280;SDS011;49406;51.044;3.766;2023-01-30T02:20:59;13.90;;;4.40;;
63280;SDS011;49406;51.044;3.766;2023-01-30T02:27:06;2.00;;;1.20;;
63280;SDS011;49406;51.044;3.766;2023-01-30T02:29:51;9.90;;;1.60;;
63280;SDS011;49406;51.044;3.766;2023-01-30T02:32:50;3.20;;;2.00;;
63280;SDS011;49406;51.044;3.766;2023-01-30T02:35:39;4.60;;;2.10;;
63280;SDS011;49406;51.044;3.766;2023-01-30T02:38:27;3.10;;;1.70;;
63280;SDS011;49406;51.044;3.766;2023-01-30T02:41:10;3.90;;;2.30;;
63280;SDS011;49406;51.044;3.766;2023-01-30T02:43:57;0.90;;;0.50;;
63280;SDS011;49406;51.044;3.766;2023-01-30T02:46:38;2.40;;;1.10;;
63280;SDS011;49406;51.044;3.766;2023-01-30T02:49:22;2.70;;;1.70;;
63280;SDS011;49406;51.044;3.766;2023-01-30T02:52:02;7.00;;;2.60;;
63280;SDS011;49406;51.044;3.766;2023-01-30T02:54:40;2.60;;;2.20;;
63280;SDS011;49406;51.044;3.766;2023-01-30T02:57:16;4.00;;;2.40;;
63280;SDS011;49406;51.044;3.766;2023-01-30T02:59:58;2.30;;;1.80;;
63280;SDS011;49406;51.044;3.766;2023-01-30T03:09:05;4.10;;;1.80;;
63280;SDS011;49406;51.044;3.766;2023-01-30T03:11:48;5.70;;;2.40;;
63280;SDS011;49406;51.044;3.766;2023-01-30T03:14:34;8.60;;;2.00;;
63280;SDS011;49406;51.044;3.766;2023-01-30T03:17:17;2.30;;;1.20;;
63280;SDS011;49406;51.044;3.766;2023-01-30T03:19:54;6.30;;;2.80;;
63280;SDS011;49406;51.044;3.766;2023-01-30T03:22:29;5.10;;;1.60;;
63280;SDS011;49406;51.044;3.766;2023-01-30T03:25:05;9.50;;;2.50;;
63280;SDS011;49406;51.044;3.766;2023-01-30T03:27:40;3.50;;;2.10;;
63280;SDS011;49406;51.044;3.766;2023-01-30T03:30:17;4.20;;;2.40;;
63280;SDS011;49406;51.044;3.766;2023-01-30T03:32:52;3.80;;;1.20;;
63280;SDS011;49406;51.044;3.766;2023-01-30T03:35:26;3.20;;;1.80;;
63280;SDS011;49406;51.044;3.766;2023-01-30T03:38:02;3.90;;;2.00;;
63280;SDS011;49406;51.044;3.766;2023-01-30T03:40:37;2.20;;;1.20;;
63280;SDS011;49406;51.044;3.766;2023-01-30T03:43:12;6.60;;;2.30;;
63280;SDS011;49406;51.044;3.766;2023-01-30T03:45:47;4.40;;;2.40;;
63280;SDS011;49406;51.044;3.766;2023-01-30T03:48:21;8.70;;;2.30;;
63280;SDS011;49406;51.044;3.766;2023-01-30T03:50:56;4.10;;;2.10;;
63280;SDS011;49406;51.044;3.766;2023-01-30T03:53:31;6.60;;;2.90;;
63280;SDS011;49406;51.044;3.766;2023-01-30T03:56:05;1.00;;;0.70;;
63280;SDS011;49406;51.044;3.766;2023-01-30T03:58:40;10.50;;;3.30;;
63280;SDS011;49406;51.044;3.766;2023-01-30T04:01:15;1.50;;;0.80;;
63280;SDS011;49406;51.044;3.766;2023-01-30T04:03:50;16.60;;;2.70;;
63280;SDS011;49406;51.044;3.766;2023-01-30T04:06:24;1.00;;;0.50;;
63280;SDS011;49406;51.044;3.766;2023-01-30T04:08:59;3.80;;;1.60;;
63280;SDS011;49406;51.044;3.766;2023-01-30T04:11:33;0.50;;;0.10;;
63280;SDS011;49406;51.044;3.766;2023-01-30T04:14:08;2.10;;;1.20;;
63280;SDS011;49406;51.044;3.766;2023-01-30T04:16:44;4.20;;;2.50;;
63280;SDS011;49406;51.044;3.766;2023-01-30T04:19:19;2.20;;;1.30;;
63280;SDS011;49406;51.044;3.766;2023-01-30T04:21:54;2.90;;;1.50;;
63280;SDS011;49406;51.044;3.766;2023-01-30T04:24:28;2.70;;;1.90;;
63280;SDS011;49406;51.044;3.766;2023-01-30T04:27:03;2.10;;;1.00;;
63280;SDS011;49406;51.044;3.766;2023-01-30T04:29:38;2.50;;;1.40;;
63280;SDS011;49406;51.044;3.766;2023-01-30T04:32:12;3.10;;;1.50;;
63280;SDS011;49406;51.044;3.766;2023-01-30T04:34:47;4.60;;;3.30;;
63280;SDS011;49406;51.044;3.766;2023-01-30T04:37:22;6.50;;;2.60;;
63280;SDS011;49406;51.044;3.766;2023-01-30T04:39:56;3.00;;;2.00;;
63280;SDS011;49406;51.044;3.766;2023-01-30T04:42:31;3.80;;;2.20;;
63280;SDS011;49406;51.044;3.766;2023-01-30T04:45:07;4.90;;;2.50;;
63280;SDS011;49406;51.044;3.766;2023-01-30T04:47:42;1.40;;;0.70;;
63280;SDS011;49406;51.044;3.766;2023-01-30T04:50:17;7.00;;;1.70;;
63280;SDS011;49406;51.044;3.766;2023-01-30T04:52:51;10.20;;;2.90;;
63280;SDS011;49406;51.044;3.766;2023-01-30T04:55:26;3.40;;;1.80;;
63280;SDS011;49406;51.044;3.766;2023-01-30T04:58:01;1.50;;;0.80;;
63280;SDS011;49406;51.044;3.766;2023-01-30T05:00:35;3.80;;;1.10;;
63280;SDS011;49406;51.044;3.766;2023-01-30T05:03:10;2.80;;;1.60;;
63280;SDS011;49406;51.044;3.766;2023-01-30T05:05:46;1.70;;;1.20;;
63280;SDS011;49406;51.044;3.766;2023-01-30T05:08:21;3.00;;;1.50;;
63280;SDS011;49406;51.044;3.766;2023-01-30T05:10:55;4.90;;;1.60;;
63280;SDS011;49406;51.044;3.766;2023-01-30T05:13:30;2.50;;;1.50;;
63280;SDS011;49406;51.044;3.766;2023-01-30T05:16:05;2.20;;;1.50;;
63280;SDS011;49406;51.044;3.766;2023-01-30T05:18:40;6.10;;;2.30;;
63280;SDS011;49406;51.044;3.766;2023-01-30T05:21:16;3.30;;;1.80;;
63280;SDS011;49406;51.044;3.766;2023-01-30T05:23:53;2.00;;;1.30;;
63280;SDS011;49406;51.044;3.766;2023-01-30T05:26:28;1.00;;;0.40;;
63280;SDS011;49406;51.044;3.766;2023-01-30T05:29:03;1.20;;;1.10;;
63280;SDS011;49406;51.044;3.766;2023-01-30T05:31:37;2.00;;;1.30;;
63280;SDS011;49406;51.044;3.766;2023-01-30T05:34:12;2.90;;;1.70;;
63280;SDS011;49406;51.044;3.766;2023-01-30T05:36:47;12.20;;;1.30;;
63280;SDS011;49406;51.044;3.766;2023-01-30T05:39:21;1.70;;;0.90;;
63280;SDS011;49406;51.044;3.766;2023-01-30T05:41:56;8.20;;;1.20;;
63280;SDS011;49406;51.044;3.766;2023-01-30T05:44:31;3.30;;;1.30;;
63280;SDS011;49406;51.044;3.766;2023-01-30T05:47:05;1.90;;;1.20;;
63280;SDS011;49406;51.044;3.766;2023-01-30T05:49:40;15.80;;;2.70;;
63280;SDS011;49406;51.044;3.766;2023-01-30T05:52:14;3.40;;;1.60;;
63280;SDS011;49406;51.044;3.766;2023-01-30T05:54:49;5.00;;;1.90;;
63280;SDS011;49406;51.044;3.766;2023-01-30T05:57:24;2.50;;;1.40;;
63280;SDS011;49406;51.044;3.766;2023-01-30T05:59:59;2.50;;;1.70;;
63280;SDS011;49406;51.044;3.766;2023-01-30T06:02:33;6.50;;;2.40;;
63280;SDS011;49406;51.044;3.766;2023-01-30T06:05:08;2.10;;;0.70;;
63280;SDS011;49406;51.044;3.766;2023-01-30T06:07:43;3.90;;;1.70;;
63280;SDS011;49406;51.044;3.766;2023-01-30T06:10:18;4.40;;;1.80;;
63280;SDS011;49406;51.044;3.766;2023-01-30T06:12:52;8.60;;;1.40;;
63280;SDS011;49406;51.044;3.766;2023-01-30T06:15:27;1.90;;;1.30;;
63280;SDS011;49406;51.044;3.766;2023-01-30T06:18:02;4.90;;;2.30;;
63280;SDS011;49406;51.044;3.766;2023-01-30T06:20:37;4.30;;;2.30;;
63280;SDS011;49406;51.044;3.766;2023-01-30T06:23:11;2.10;;;1.20;;
63280;SDS011;49406;51.044;3.766;2023-01-30T06:25:46;2.60;;;1.60;;
63280;SDS011;49406;51.044;3.766;2023-01-30T06:28:22;3.30;;;1.60;;
63280;SDS011;49406;51.044;3.766;2023-01-30T06:30:57;1.60;;;0.70;;
63280;SDS011;49406;51.044;3.766;2023-01-30T06:33:32;3.40;;;1.50;;
63280;SDS011;49406;51.044;3.766;2023-01-30T06:36:07;3.00;;;1.70;;
63280;SDS011;49406;51.044;3.766;2023-01-30T06:38:42;3.60;;;2.30;;
63280;SDS011;49406;51.044;3.766;2023-01-30T06:41:17;1.80;;;0.80;;
63280;SDS011;49406;51.044;3.766;2023-01-30T06:43:52;3.80;;;1.50;;
63280;SDS011;49406;51.044;3.766;2023-01-30T06:46:27;4.50;;;1.50;;
63280;SDS011;49406;51.044;3.766;2023-01-30T06:49:01;3.20;;;1.10;;
63280;SDS011;49406;51.044;3.766;2023-01-30T06:51:36;2.00;;;1.10;;
63280;SDS011;49406;51.044;3.766;2023-01-30T06:54:11;1.90;;;0.80;;
63280;SDS011;49406;51.044;3.766;2023-01-30T06:56:45;4.30;;;2.40;;
63280;SDS011;49406;51.044;3.766;2023-01-30T06:59:20;9.00;;;2.50;;
63280;SDS011;49406;51.044;3.766;2023-01-30T07:01:55;18.00;;;1.50;;
63280;SDS011;49406;51.044;3.766;2023-01-30T07:04:30;4.90;;;1.80;;
63280;SDS011;49406;51.044;3.766;2023-01-30T07:07:04;4.40;;;1.50;;
63280;SDS011;49406;51.044;3.766;2023-01-30T07:09:39;2.90;;;0.90;;
63280;SDS011;49406;51.044;3.766;2023-01-30T07:12:15;8.60;;;2.30;;
63280;SDS011;49406;51.044;3.766;2023-01-30T07:14:49;4.70;;;1.30;;
63280;SDS011;49406;51.044;3.766;2023-01-30T07:17:24;1.90;;;0.90;;
63280;SDS011;49406;51.044;3.766;2023-01-30T07:19:59;3.80;;;0.90;;
63280;SDS011;49406;51.044;3.766;2023-01-30T07:22:34;1.70;;;1.00;;
63280;SDS011;49406;51.044;3.766;2023-01-30T07:25:08;4.00;;;1.40;;
63280;SDS011;49406;51.044;3.766;2023-01-30T07:27:43;10.60;;;2.40;;
63280;SDS011;49406;51.044;3.766;2023-01-30T07:30:23;37.10;;;2.70;;
63280;SDS011;49406;51.044;3.766;2023-01-30T07:32:59;3.10;;;1.10;;
63280;SDS011;49406;51.044;3.766;2023-01-30T07:35:35;3.10;;;2.30;;
63280;SDS011;49406;51.044;3.766;2023-01-30T07:38:10;0.40;;;0.10;;
63280;SDS011;49406;51.044;3.766;2023-01-30T07:40:45;1.90;;;1.00;;
63280;SDS011;49406;51.044;3.766;2023-01-30T07:43:19;3.60;;;1.20;;
63280;SDS011;49406;51.044;3.766;2023-01-30T07:45:54;3.10;;;1.30;;
63280;SDS011;49406;51.044;3.766;2023-01-30T07:48:28;1.00;;;0.40;;
63280;SDS011;49406;51.044;3.766;2023-01-30T07:51:03;1.20;;;0.60;;
63280;SDS011;49406;51.044;3.766;2023-01-30T07:53:38;0.90;;;0.60;;
63280;SDS011;49406;51.044;3.766;2023-01-30T07:56:13;5.10;;;1.00;;
63280;SDS011;49406;51.044;3.766;2023-01-30T07:58:49;8.90;;;1.90;;
63280;SDS011;49406;51.044;3.766;2023-01-30T08:01:26;2.10;;;1.00;;
63280;SDS011;49406;51.044;3.766;2023-01-30T08:04:00;1.40;;;0.80;;
63280;SDS011;49406;51.044;3.766;2023-01-30T08:06:35;11.10;;;0.90;;
63280;SDS011;49406;51.044;3.766;2023-01-30T08:09:10;1.00;;;0.10;;
63280;SDS011;49406;51.044;3.766;2023-01-30T08:11:45;8.10;;;1.00;;
63280;SDS011;49406;51.044;3.766;2023-01-30T08:14:19;2.10;;;0.80;;
63280;SDS011;49406;51.044;3.766;2023-01-30T08:16:56;3.60;;;0.90;;
63280;SDS011;49406;51.044;3.766;2023-01-30T08:19:31;0.40;;;0.30;;
63280;SDS011;49406;51.044;3.766;2023-01-30T08:22:05;6.40;;;1.00;;
63280;SDS011;49406;51.044;3.766;2023-01-30T08:24:40;4.90;;;1.50;;
63280;SDS011;49406;51.044;3.766;2023-01-30T08:27:15;1.50;;;0.90;;
63280;SDS011;49406;51.044;3.766;2023-01-30T08:29:49;2.00;;;1.10;;
63280;SDS011;49406;51.044;3.766;2023-01-30T08:32:24;3.90;;;1.40;;
63280;SDS011;49406;51.044;3.766;2023-01-30T08:34:58;2.00;;;0.90;;
63280;SDS011;49406;51.044;3.766;2023-01-30T08:37:33;2.00;;;0.80;;
63280;SDS011;49406;51.044;3.766;2023-01-30T08:42:43;2.80;;;1.60;;
63280;SDS011;49406;51.044;3.766;2023-01-30T08:45:18;1.90;;;1.20;;
63280;SDS011;49406;51.044;3.766;2023-01-30T08:47:53;1.70;;;0.60;;
63280;SDS011;49406;51.044;3.766;2023-01-30T08:50:31;1.50;;;0.70;;
63280;SDS011;49406;51.044;3.766;2023-01-30T08:53:07;1.20;;;0.40;;
63280;SDS011;49406;51.044;3.766;2023-01-30T08:55:43;3.10;;;1.30;;
63280;SDS011;49406;51.044;3.766;2023-01-30T08:58:21;2.80;;;0.80;;
63280;SDS011;49406;51.044;3.766;2023-01-30T09:00:56;2.40;;;1.40;;
63280;SDS011;49406;51.044;3.766;2023-01-30T09:06:04;3.70;;;0.70;;
63280;SDS011;49406;51.044;3.766;2023-01-30T09:08:39;0.00;;;0.00;;
63280;SDS011;49406;51.044;3.766;2023-01-30T09:11:13;2.50;;;0.80;;
63280;SDS011;49406;51.044;3.766;2023-01-30T09:16:21;7.50;;;0.90;;
63280;SDS011;49406;51.044;3.766;2023-01-30T09:18:55;1.60;;;0.70;;
63280;SDS011;49406;51.044;3.766;2023-01-30T09:21:30;3.60;;;1.40;;
63280;SDS011;49406;51.044;3.766;2023-01-30T09:24:05;0.40;;;0.10;;
63280;SDS011;49406;51.044;3.766;2023-01-30T09:26:40;4.70;;;0.70;;
63280;SDS011;49406;51.044;3.766;2023-01-30T09:29:15;1.10;;;0.30;;
63280;SDS011;49406;51.044;3.766;2023-01-30T09:31:50;2.30;;;1.20;;
63280;SDS011;49406;51.044;3.766;2023-01-30T09:34:27;1.90;;;1.10;;
63280;SDS011;49406;51.044;3.766;2023-01-30T09:37:01;2.20;;;0.90;;
63280;SDS011;49406;51.044;3.766;2023-01-30T09:39:36;4.00;;;0.50;;
63280;SDS011;49406;51.044;3.766;2023-01-30T09:42:24;3.30;;;0.70;;
63280;SDS011;49406;51.044;3.766;2023-01-30T09:45:25;7.10;;;1.00;;
63280;SDS011;49406;51.044;3.766;2023-01-30T09:48:08;1.50;;;0.80;;
63280;SDS011;49406;51.044;3.766;2023-01-30T09:50:57;2.60;;;1.30;;
63280;SDS011;49406;51.044;3.766;2023-01-30T09:53:48;23.10;;;0.80;;
63280;SDS011;49406;51.044;3.766;2023-01-30T09:56:42;2.10;;;1.30;;
63280;SDS011;49406;51.044;3.766;2023-01-30T09:59:18;2.50;;;0.60;;
63280;SDS011;49406;51.044;3.766;2023-01-30T10:02:02;3.40;;;0.80;;
63280;SDS011;49406;51.044;3.766;2023-01-30T10:04:54;4.10;;;0.80;;
63280;SDS011;49406;51.044;3.766;2023-01-30T10:07:33;3.30;;;1.00;;
63280;SDS011;49406;51.044;3.766;2023-01-30T10:10:19;1.20;;;0.70;;
63280;SDS011;49406;51.044;3.766;2023-01-30T10:13:02;0.70;;;0.50;;
63280;SDS011;49406;51.044;3.766;2023-01-30T10:15:49;5.40;;;0.80;;
63280;SDS011;49406;51.044;3.766;2023-01-30T10:18:45;3.10;;;0.80;;
63280;SDS011;49406;51.044;3.766;2023-01-30T10:21:44;2.90;;;0.60;;
63280;SDS011;49406;51.044;3.766;2023-01-30T10:24:33;14.50;;;2.30;;
63280;SDS011;49406;51.044;3.766;2023-01-30T10:27:16;1.90;;;1.10;;
63280;SDS011;49406;51.044;3.766;2023-01-30T10:29:52;3.30;;;0.90;;
63280;SDS011;49406;51.044;3.766;2023-01-30T10:32:31;6.60;;;1.00;;
63280;SDS011;49406;51.044;3.766;2023-01-30T10:35:13;0.90;;;0.30;;
63280;SDS011;49406;51.044;3.766;2023-01-30T10:37:52;5.50;;;0.60;;
63280;SDS011;49406;51.044;3.766;2023-01-30T10:40:32;4.40;;;0.90;;
63280;SDS011;49406;51.044;3.766;2023-01-30T10:43:14;1.60;;;0.80;;
63280;SDS011;49406;51.044;3.766;2023-01-30T10:45:58;1.50;;;0.40;;
63280;SDS011;49406;51.044;3.766;2023-01-30T10:48:44;2.90;;;1.30;;
63280;SDS011;49406;51.044;3.766;2023-01-30T10:51:29;2.00;;;0.50;;
63280;SDS011;49406;51.044;3.766;2023-01-30T10:54:16;4.10;;;1.30;;
63280;SDS011;49406;51.044;3.766;2023-01-30T10:56:59;2.10;;;1.00;;
63280;SDS011;49406;51.044;3.766;2023-01-30T10:59:47;0.90;;;0.60;;
63280;SDS011;49406;51.044;3.766;2023-01-30T11:02:29;4.10;;;1.70;;
63280;SDS011;49406;51.044;3.766;2023-01-30T11:05:12;8.80;;;1.60;;
63280;SDS011;49406;51.044;3.766;2023-01-30T11:07:50;1.50;;;0.70;;
63280;SDS011;49406;51.044;3.766;2023-01-30T11:10:25;2.70;;;1.40;;
63280;SDS011;49406;51.044;3.766;2023-01-30T11:13:07;2.00;;;1.10;;
63280;SDS011;49406;51.044;3.766;2023-01-30T11:15:47;4.50;;;1.50;;
63280;SDS011;49406;51.044;3.766;2023-01-30T11:18:24;2.40;;;1.30;;
63280;SDS011;49406;51.044;3.766;2023-01-30T11:21:03;1.90;;;0.90;;
63280;SDS011;49406;51.044;3.766;2023-01-30T11:23:40;2.20;;;0.90;;
63280;SDS011;49406;51.044;3.766;2023-01-30T11:26:18;1.20;;;0.60;;
63280;SDS011;49406;51.044;3.766;2023-01-30T11:28:55;2.40;;;0.90;;
63280;SDS011;49406;51.044;3.766;2023-01-30T11:31:30;7.20;;;1.00;;
63280;SDS011;49406;51.044;3.766;2023-01-30T11:34:09;3.40;;;1.50;;
63280;SDS011;49406;51.044;3.766;2023-01-30T11:36:47;3.10;;;1.20;;
63280;SDS011;49406;51.044;3.766;2023-01-30T11:39:26;8.90;;;1.60;;
63280;SDS011;49406;51.044;3.766;2023-01-30T11:42:02;3.70;;;0.40;;
63280;SDS011;49406;51.044;3.766;2023-01-30T11:44:42;7.10;;;1.00;;
63280;SDS011;49406;51.044;3.766;2023-01-30T11:47:18;7.30;;;1.20;;
63280;SDS011;49406;51.044;3.766;2023-01-30T11:49:57;2.70;;;1.20;;
63280;SDS011;49406;51.044;3.766;2023-01-30T11:52:34;0.60;;;0.20;;
63280;SDS011;49406;51.044;3.766;2023-01-30T11:55:11;3.50;;;0.60;;
63280;SDS011;49406;51.044;3.766;2023-01-30T11:57:49;2.80;;;0.90;;
63280;SDS011;49406;51.044;3.766;2023-01-30T12:00:35;1.70;;;0.50;;
63280;SDS011;49406;51.044;3.766;2023-01-30T12:03:13;6.90;;;1.70;;
63280;SDS011;49406;51.044;3.766;2023-01-30T12:05:51;2.30;;;0.70;;
63280;SDS011;49406;51.044;3.766;2023-01-30T12:08:26;5.40;;;0.80;;
63280;SDS011;49406;51.044;3.766;2023-01-30T12:11:23;6.80;;;1.60;;
63280;SDS011;49406;51.044;3.766;2023-01-30T12:14:03;6.80;;;1.20;;
63280;SDS011;49406;51.044;3.766;2023-01-30T12:22:37;5.00;;;1.30;;
63280;SDS011;49406;51.044;3.766;2023-01-30T12:25:19;0.30;;;0.30;;
63280;SDS011;49406;51.044;3.766;2023-01-30T12:28:00;7.90;;;2.40;;
63280;SDS011;49406;51.044;3.766;2023-01-30T12:30:43;4.70;;;1.60;;
63280;SDS011;49406;51.044;3.766;2023-01-30T12:33:21;3.40;;;1.10;;
63280;SDS011;49406;51.044;3.766;2023-01-30T12:36:04;3.20;;;1.00;;
63280;SDS011;49406;51.044;3.766;2023-01-30T12:38:51;6.20;;;2.00;;
63280;SDS011;49406;51.044;3.766;2023-01-30T12:41:40;2.60;;;1.80;;
63280;SDS011;49406;51.044;3.766;2023-01-30T12:44:31;1.20;;;0.40;;
63280;SDS011;49406;51.044;3.766;2023-01-30T12:47:28;7.00;;;1.20;;
63280;SDS011;49406;51.044;3.766;2023-01-30T12:50:28;9.80;;;2.20;;
63280;SDS011;49406;51.044;3.766;2023-01-30T12:53:20;8.30;;;1.30;;
63280;SDS011;49406;51.044;3.766;2023-01-30T12:56:20;5.00;;;1.30;;
63280;SDS011;49406;51.044;3.766;2023-01-30T12:59:06;1.20;;;0.60;;
63280;SDS011;49406;51.044;3.766;2023-01-30T13:01:46;3.30;;;0.70;;
63280;SDS011;49406;51.044;3.766;2023-01-30T13:04:32;1.80;;;0.70;;
63280;SDS011;49406;51.044;3.766;2023-01-30T13:07:15;3.40;;;0.70;;
63280;SDS011;49406;51.044;3.766;2023-01-30T13:09:58;1.90;;;0.70;;
63280;SDS011;49406;51.044;3.766;2023-01-30T13:12:42;2.40;;;0.40;;
63280;SDS011;49406;51.044;3.766;2023-01-30T13:15:25;5.60;;;1.60;;
63280;SDS011;49406;51.044;3.766;2023-01-30T13:18:06;3.70;;;0.60;;
63280;SDS011;49406;51.044;3.766;2023-01-30T13:20:49;2.40;;;1.10;;
63280;SDS011;49406;51.044;3.766;2023-01-30T13:23:36;8.10;;;0.90;;
63280;SDS011;49406;51.044;3.766;2023-01-30T13:26:21;2.60;;;0.50;;
63280;SDS011;49406;51.044;3.766;2023-01-30T13:29:02;5.20;;;1.50;;
63280;SDS011;49406;51.044;3.766;2023-01-30T13:31:45;1.80;;;0.70;;
63280;SDS011;49406;51.044;3.766;2023-01-30T13:34:26;11.70;;;1.00;;
63280;SDS011;49406;51.044;3.766;2023-01-30T13:37:04;1.70;;;0.60;;
63280;SDS011;49406;51.044;3.766;2023-01-30T13:39:44;1.40;;;0.40;;
63280;SDS011;49406;51.044;3.766;2023-01-30T13:42:25;2.60;;;1.10;;
63280;SDS011;49406;51.044;3.766;2023-01-30T13:45:05;3.30;;;0.60;;
63280;SDS011;49406;51.044;3.766;2023-01-30T13:47:50;0.40;;;0.30;;
63280;SDS011;49406;51.044;3.766;2023-01-30T13:50:38;0.50;;;0.20;;
63280;SDS011;49406;51.044;3.766;2023-01-30T13:53:21;12.50;;;1.50;;
63280;SDS011;49406;51.044;3.766;2023-01-30T13:56:04;2.70;;;0.90;;
63280;SDS011;49406;51.044;3.766;2023-01-30T13:58:48;4.90;;;1.30;;
63280;SDS011;49406;51.044;3.766;2023-01-30T14:04:42;4.00;;;0.80;;
63280;SDS011;49406;51.044;3.766;2023-01-30T14:07:30;1.60;;;0.20;;
63280;SDS011;49406;51.044;3.766;2023-01-30T14:10:14;1.40;;;0.70;;
63280;SDS011;49406;51.044;3.766;2023-01-30T14:12:52;2.30;;;0.70;;
63280;SDS011;49406;51.044;3.766;2023-01-30T14:15:27;2.90;;;0.60;;
63280;SDS011;49406;51.044;3.766;2023-01-30T14:18:03;5.50;;;1.70;;
63280;SDS011;49406;51.044;3.766;2023-01-30T14:20:51;10.80;;;0.50;;
63280;SDS011;49406;51.044;3.766;2023-01-30T14:23:53;2.90;;;1.00;;
63280;SDS011;49406;51.044;3.766;2023-01-30T14:29:52;2.40;;;1.10;;
63280;SDS011;49406;51.044;3.766;2023-01-30T14:35:27;10.70;;;2.30;;
63280;SDS011;49406;51.044;3.766;2023-01-30T14:38:12;5.40;;;0.70;;
63280;SDS011;49406;51.044;3.766;2023-01-30T14:40:48;7.70;;;2.00;;
63280;SDS011;49406;51.044;3.766;2023-01-30T14:43:44;4.80;;;0.60;;
63280;SDS011;49406;51.044;3.766;2023-01-30T14:49:20;1.90;;;0.50;;
63280;SDS011;49406;51.044;3.766;2023-01-30T14:52:03;2.10;;;0.70;;
63280;SDS011;49406;51.044;3.766;2023-01-30T14:54:54;1.90;;;0.50;;
63280;SDS011;49406;51.044;3.766;2023-01-30T14:57:29;0.80;;;0.30;;
63280;SDS011;49406;51.044;3.766;2023-01-30T15:00:13;2.00;;;0.80;;
63280;SDS011;49406;51.044;3.766;2023-01-30T15:02:55;5.50;;;0.60;;
63280;SDS011;49406;51.044;3.766;2023-01-30T15:05:36;5.70;;;1.70;;
63280;SDS011;49406;51.044;3.766;2023-01-30T15:08:15;1.40;;;0.40;;
63280;SDS011;49406;51.044;3.766;2023-01-30T15:11:07;1.10;;;0.60;;
63280;SDS011;49406;51.044;3.766;2023-01-30T15:13:59;1.30;;;0.60;;
63280;SDS011;49406;51.044;3.766;2023-01-30T15:16:42;3.50;;;0.90;;
63280;SDS011;49406;51.044;3.766;2023-01-30T15:19:34;25.50;;;1.50;;
63280;SDS011;49406;51.044;3.766;2023-01-30T15:22:22;1.00;;;0.50;;
63280;SDS011;49406;51.044;3.766;2023-01-30T15:25:24;2.30;;;0.70;;
63280;SDS011;49406;51.044;3.766;2023-01-30T15:28:08;3.40;;;1.70;;
63280;SDS011;49406;51.044;3.766;2023-01-30T15:30:54;1.50;;;1.10;;
63280;SDS011;49406;51.044;3.766;2023-01-30T15:33:43;4.50;;;0.50;;
63280;SDS011;49406;51.044;3.766;2023-01-30T15:36:22;3.70;;;0.40;;
63280;SDS011;49406;51.044;3.766;2023-01-30T15:38:59;5.10;;;1.80;;
63280;SDS011;49406;51.044;3.766;2023-01-30T15:41:37;0.80;;;0.30;;
63280;SDS011;49406;51.044;3.766;2023-01-30T15:44:27;2.90;;;0.60;;
63280;SDS011;49406;51.044;3.766;2023-01-30T15:47:29;0.10;;;0.10;;
63280;SDS011;49406;51.044;3.766;2023-01-30T15:50:23;0.60;;;0.20;;
63280;SDS011;49406;51.044;3.766;2023-01-30T15:52:58;2.40;;;0.60;;
63280;SDS011;49406;51.044;3.766;2023-01-30T15:55:34;10.00;;;0.90;;
63280;SDS011;49406;51.044;3.766;2023-01-30T15:58:13;11.10;;;0.80;;
63280;SDS011;49406;51.044;3.766;2023-01-30T16:00:49;5.20;;;0.90;;
63280;SDS011;49406;51.044;3.766;2023-01-30T16:03:27;1.50;;;0.70;;
63280;SDS011;49406;51.044;3.766;2023-01-30T16:06:18;0.60;;;0.40;;
63280;SDS011;49406;51.044;3.766;2023-01-30T16:08:56;4.10;;;0.50;;
63280;SDS011;49406;51.044;3.766;2023-01-30T16:11:34;1.40;;;0.40;;
63280;SDS011;49406;51.044;3.766;2023-01-30T16:14:11;2.40;;;0.90;;
63280;SDS011;49406;51.044;3.766;2023-01-30T16:16:48;0.80;;;0.30;;
63280;SDS011;49406;51.044;3.766;2023-01-30T16:19:27;1.10;;;0.60;;
63280;SDS011;49406;51.044;3.766;2023-01-30T16:22:04;5.20;;;0.70;;
63280;SDS011;49406;51.044;3.766;2023-01-30T16:24:50;4.90;;;0.90;;
63280;SDS011;49406;51.044;3.766;2023-01-30T16:27:27;3.20;;;1.30;;
63280;SDS011;49406;51.044;3.766;2023-01-30T16:30:04;1.10;;;0.60;;
63280;SDS011;49406;51.044;3.766;2023-01-30T16:32:41;3.20;;;1.00;;
63280;SDS011;49406;51.044;3.766;2023-01-30T16:35:24;2.20;;;0.30;;